createdAt,value
2018-02-18T00:00:42.291Z,22.3
2018-02-18T00:01:42.158Z,22.3
2018-02-18T00:02:41.983Z,22.3
2018-02-18T00:03:42.096Z,22.3
2018-02-18T00:04:41.611Z,22.3
2018-02-18T00:05:42.245Z,22.3
2018-02-18T00:06:41.695Z,22.3
2018-02-18T00:07:41.579Z,22.3
2018-02-18T00:08:41.568Z,22.3
2018-02-18T00:09:41.320Z,22.3
2018-02-18T00:10:41.402Z,22.3
2018-02-18T00:11:41.402Z,22.3
2018-02-18T00:12:41.176Z,22.2
2018-02-18T00:13:41.210Z,22.3
2018-02-18T00:14:41.183Z,22.2
2018-02-18T00:15:40.893Z,22.2
2018-02-18T00:16:41.136Z,22.2
2018-02-18T00:17:40.954Z,22.2
2018-02-18T00:18:40.650Z,22.3
2018-02-18T00:19:40.737Z,22.2
2018-02-18T00:20:40.674Z,22.2
2018-02-18T00:21:40.493Z,22.2
2018-02-18T00:22:40.456Z,22.2
2018-02-18T00:23:40.514Z,22.2
2018-02-18T00:24:40.283Z,22.2
2018-02-18T00:25:40.394Z,22.2
2018-02-18T00:26:40.219Z,22.2
2018-02-18T00:27:40.366Z,22.2
2018-02-18T00:28:40.197Z,22.2
2018-02-18T00:29:39.912Z,22.2
2018-02-18T00:30:40.279Z,22.2
2018-02-18T00:31:39.918Z,22.2
2018-02-18T00:32:40.186Z,22.2
2018-02-18T00:33:39.617Z,22.2
2018-02-18T00:34:39.670Z,22.2
2018-02-18T00:35:39.575Z,22.2
2018-02-18T00:36:39.640Z,22.2
2018-02-18T00:37:39.688Z,22.2
2018-02-18T00:38:39.596Z,22.1
2018-02-18T00:39:39.691Z,22.1
2018-02-18T00:40:39.189Z,22.1
2018-02-18T00:41:39.486Z,22.1
2018-02-18T00:42:39.049Z,22.2
2018-02-18T00:43:38.971Z,22.1
2018-02-18T00:44:39.430Z,22.1
2018-02-18T00:45:38.868Z,22.1
2018-02-18T00:46:38.778Z,22.1
2018-02-18T00:47:38.717Z,22.1
2018-02-18T00:48:38.634Z,22.1
2018-02-18T00:49:38.581Z,22.1
2018-02-18T00:50:38.511Z,22.1
2018-02-18T00:51:38.459Z,22.1
2018-02-18T00:52:38.708Z,22.1
2018-02-18T00:53:38.401Z,22.1
2018-02-18T00:54:38.193Z,22.2
2018-02-18T00:55:38.355Z,22.1
2018-02-18T00:56:38.119Z,22.2
2018-02-18T00:57:38.366Z,22.2
2018-02-18T00:58:37.945Z,22.3
2018-02-18T00:59:38.458Z,22.2
2018-02-18T01:00:37.852Z,22.2
2018-02-18T01:01:37.751Z,22.2
2018-02-18T01:02:37.959Z,22.2
2018-02-18T01:03:37.932Z,22.2
2018-02-18T01:04:37.564Z,22.2
2018-02-18T01:05:37.508Z,22.2
2018-02-18T01:06:37.392Z,22.2
2018-02-18T01:07:37.674Z,22.2
2018-02-18T01:08:37.345Z,22.2
2018-02-18T01:09:37.578Z,22.2
2018-02-18T01:10:37.404Z,22.2
2018-02-18T01:11:37.203Z,22.2
2018-02-18T01:12:37.043Z,22.2
2018-02-18T01:13:37.086Z,22.2
2018-02-18T01:14:37.009Z,22.2
2018-02-18T01:15:37.385Z,22.2
2018-02-18T01:16:36.978Z,22.2
2018-02-18T01:17:36.790Z,22.2
2018-02-18T01:18:36.622Z,22.1
2018-02-18T01:19:36.634Z,22.2
2018-02-18T01:20:36.470Z,22.1
2018-02-18T01:21:36.392Z,22.1
2018-02-18T01:22:36.525Z,22.2
2018-02-18T01:23:36.283Z,22.2
2018-02-18T01:24:36.145Z,22.2
2018-02-18T01:25:36.539Z,22.2
2018-02-18T01:26:35.979Z,22.3
2018-02-18T01:27:36.093Z,22.3
2018-02-18T01:28:35.945Z,22.3
2018-02-18T01:29:35.755Z,22.3
2018-02-18T01:30:36.152Z,22.3
2018-02-18T01:31:35.675Z,22.3
2018-02-18T01:32:35.655Z,22.3
2018-02-18T01:33:35.760Z,22.3
2018-02-18T01:34:35.987Z,22.3
2018-02-18T01:35:35.375Z,22.3
2018-02-18T01:36:35.435Z,22.2
2018-02-18T01:37:35.365Z,22.2
2018-02-18T01:38:35.420Z,22.3
2018-02-18T01:39:35.184Z,22.3
2018-02-18T01:40:34.999Z,22.2
2018-02-18T01:41:35.274Z,22.2
2018-02-18T01:42:35.016Z,22.2
2018-02-18T01:43:34.953Z,22.2
2018-02-18T01:44:34.949Z,22.2
2018-02-18T01:45:35.024Z,22.2
2018-02-18T01:46:34.937Z,22.2
2018-02-18T01:47:34.597Z,22.2
2018-02-18T01:48:34.541Z,22.2
2018-02-18T01:49:34.786Z,22.2
2018-02-18T01:50:34.354Z,22.2
2018-02-18T01:51:34.387Z,22.2
2018-02-18T01:52:34.737Z,22.2
2018-02-18T01:53:34.145Z,22.2
2018-02-18T01:54:34.194Z,22.2
2018-02-18T01:55:34.088Z,22.2
2018-02-18T01:56:33.884Z,22.2
2018-02-18T01:57:33.953Z,22.2
2018-02-18T01:58:34.129Z,22.2
2018-02-18T01:59:33.889Z,22.2
2018-02-18T02:00:33.890Z,22.2
2018-02-18T02:01:33.593Z,22.2
2018-02-18T02:02:33.759Z,22.2
2018-02-18T02:03:33.537Z,22.1
2018-02-18T02:04:33.607Z,22.2
2018-02-18T02:05:33.404Z,22.2
2018-02-18T02:06:33.432Z,22.2
2018-02-18T02:07:33.452Z,22.2
2018-02-18T02:08:33.176Z,22.3
2018-02-18T02:09:33.507Z,22.3
2018-02-18T02:10:32.969Z,22.3
2018-02-18T02:11:32.979Z,22.3
2018-02-18T02:12:32.922Z,22.3
2018-02-18T02:13:32.878Z,22.3
2018-02-18T02:14:32.707Z,22.3
2018-02-18T02:15:32.631Z,22.3
2018-02-18T02:16:32.675Z,22.3
2018-02-18T02:17:32.834Z,22.3
2018-02-18T02:18:32.825Z,22.3
2018-02-18T02:19:32.359Z,22.3
2018-02-18T02:20:32.655Z,22.3
2018-02-18T02:21:32.205Z,22.3
2018-02-18T02:22:32.314Z,22.3
2018-02-18T02:23:32.172Z,22.3
2018-02-18T02:24:32.014Z,22.3
2018-02-18T02:25:32.064Z,22.3
2018-02-18T02:26:31.979Z,22.3
2018-02-18T02:27:31.837Z,22.3
2018-02-18T02:28:31.799Z,22.3
2018-02-18T02:29:31.647Z,22.3
2018-02-18T02:30:31.931Z,22.3
2018-02-18T02:31:31.642Z,22.3
2018-02-18T02:32:31.505Z,22.3
2018-02-18T02:33:31.803Z,22.3
2018-02-18T02:34:31.324Z,22.2
2018-02-18T02:35:31.517Z,22.2
2018-02-18T02:36:31.309Z,22.2
2018-02-18T02:37:31.199Z,22.3
2018-02-18T02:38:31.231Z,22.2
2018-02-18T02:39:31.075Z,22.2
2018-02-18T02:40:31.268Z,22.2
2018-02-18T02:41:31.131Z,22.2
2018-02-18T02:42:30.777Z,22.2
2018-02-18T02:43:30.703Z,22.2
2018-02-18T02:44:30.642Z,22.2
2018-02-18T02:45:30.596Z,22.2
2018-02-18T02:46:30.749Z,22.2
2018-02-18T02:47:30.422Z,22.2
2018-02-18T02:48:30.388Z,22.2
2018-02-18T02:49:30.996Z,22.2
2018-02-18T02:50:30.444Z,22.2
2018-02-18T02:51:30.326Z,22.2
2018-02-18T02:52:30.395Z,22.2
2018-02-18T02:53:30.315Z,22.2
2018-02-18T02:54:30.050Z,22.2
2018-02-18T02:55:30.278Z,22.2
2018-02-18T02:56:30.119Z,22.1
2018-02-18T02:57:29.802Z,22.2
2018-02-18T02:58:29.993Z,22.1
2018-02-18T02:59:29.608Z,22.1
2018-02-18T03:00:29.646Z,22.1
2018-02-18T03:01:29.717Z,22.1
2018-02-18T03:02:29.477Z,22.1
2018-02-18T03:03:29.328Z,22.1
2018-02-18T03:04:29.361Z,22.1
2018-02-18T03:05:29.183Z,22.1
2018-02-18T03:06:29.628Z,22.1
2018-02-18T03:07:29.075Z,22.1
2018-02-18T03:08:28.976Z,22.1
2018-02-18T03:09:28.891Z,22.1
2018-02-18T03:10:29.048Z,22.1
2018-02-18T03:11:29.039Z,22.1
2018-02-18T03:12:29.370Z,22.1
2018-02-18T03:13:28.627Z,22.1
2018-02-18T03:14:28.555Z,22.1
2018-02-18T03:15:28.433Z,22.1
2018-02-18T03:16:28.498Z,22.1
2018-02-18T03:17:28.513Z,22.1
2018-02-18T03:18:28.495Z,22.1
2018-02-18T03:19:28.329Z,22.1
2018-02-18T03:20:28.470Z,22.1
2018-02-18T03:21:28.142Z,22.1
2018-02-18T03:22:28.132Z,22.1
2018-02-18T03:23:28.166Z,22.1
2018-02-18T03:24:27.971Z,22.1
2018-02-18T03:25:27.800Z,22.1
2018-02-18T03:26:28.028Z,22.1
2018-02-18T03:27:28.301Z,22.1
2018-02-18T03:28:27.876Z,22.1
2018-02-18T03:29:27.825Z,22.1
2018-02-18T03:30:27.757Z,22.1
2018-02-18T03:31:27.750Z,22.1
2018-02-18T03:32:27.448Z,22.1
2018-02-18T03:33:27.510Z,22.1
2018-02-18T03:34:27.156Z,22.1
2018-02-18T03:35:27.220Z,22.1
2018-02-18T03:36:27.149Z,22.1
2018-02-18T03:37:27.137Z,22.1
2018-02-18T03:38:27.260Z,22.1
2018-02-18T03:39:27.066Z,22.1
2018-02-18T03:40:27.064Z,22.1
2018-02-18T03:41:26.661Z,22
2018-02-18T03:42:26.675Z,22.1
2018-02-18T03:43:26.730Z,22.1
2018-02-18T03:44:26.819Z,22
2018-02-18T03:45:26.629Z,22.1
2018-02-18T03:46:26.646Z,22
2018-02-18T03:47:26.539Z,22.1
2018-02-18T03:48:26.216Z,22.1
2018-02-18T03:49:26.172Z,22
2018-02-18T03:50:26.110Z,22.1
2018-02-18T03:51:26.164Z,22.1
2018-02-18T03:52:25.942Z,22.1
2018-02-18T03:53:26.073Z,22.1
2018-02-18T03:54:25.919Z,22.1
2018-02-18T03:55:25.832Z,22.1
2018-02-18T03:56:25.896Z,22.1
2018-02-18T03:57:26.050Z,22.2
2018-02-18T03:58:25.745Z,22.2
2018-02-18T03:59:25.503Z,22.2
2018-02-18T04:00:25.568Z,22.2
2018-02-18T04:01:25.260Z,22.2
2018-02-18T04:02:25.316Z,22.2
2018-02-18T04:03:25.176Z,22.2
2018-02-18T04:04:25.335Z,22.2
2018-02-18T04:05:25.034Z,22.1
2018-02-18T04:06:25.051Z,22.2
2018-02-18T04:07:25.747Z,22.2
2018-02-18T04:08:24.892Z,22.2
2018-02-18T04:09:24.883Z,22.2
2018-02-18T04:10:24.899Z,22.2
2018-02-18T04:11:24.893Z,22.1
2018-02-18T04:12:24.623Z,22.1
2018-02-18T04:13:24.449Z,22.2
2018-02-18T04:14:24.421Z,22.1
2018-02-18T04:15:24.651Z,22.2
2018-02-18T04:16:24.464Z,22.1
2018-02-18T04:17:24.622Z,22.1
2018-02-18T04:19:24.114Z,22.1
2018-02-18T04:20:24.186Z,22.1
2018-02-18T04:21:24.039Z,22.1
2018-02-18T04:22:24.136Z,22.1
2018-02-18T04:23:23.791Z,22.1
2018-02-18T04:24:23.864Z,22.1
2018-02-18T04:25:23.721Z,22.1
2018-02-18T04:26:23.587Z,22.1
2018-02-18T04:27:23.961Z,22.1
2018-02-18T04:28:23.453Z,22.1
2018-02-18T04:29:23.414Z,22.1
2018-02-18T04:30:23.528Z,22.1
2018-02-18T04:31:23.277Z,22.1
2018-02-18T04:32:23.166Z,22.1
2018-02-18T04:33:23.316Z,22.1
2018-02-18T04:34:23.246Z,22.1
2018-02-18T04:35:23.008Z,22.1
2018-02-18T04:36:22.966Z,22.1
2018-02-18T04:37:22.807Z,22.1
2018-02-18T04:38:22.848Z,22.1
2018-02-18T04:39:22.793Z,22.1
2018-02-18T04:40:22.660Z,22.1
2018-02-18T04:41:22.730Z,22.1
2018-02-18T04:42:22.601Z,22.1
2018-02-18T04:43:22.708Z,22.2
2018-02-18T04:44:22.464Z,22.2
2018-02-18T04:45:22.262Z,22.3
2018-02-18T04:46:22.302Z,22.3
2018-02-18T04:47:22.507Z,22.3
2018-02-18T04:48:22.107Z,22.3
2018-02-18T04:49:21.998Z,22.3
2018-02-18T04:50:21.940Z,22.3
2018-02-18T04:51:21.856Z,22.3
2018-02-18T04:52:21.795Z,22.3
2018-02-18T04:53:21.755Z,22.3
2018-02-18T04:54:21.766Z,22.3
2018-02-18T04:55:21.590Z,22.3
2018-02-18T04:56:21.696Z,22.3
2018-02-18T04:57:21.682Z,22.3
2018-02-18T04:58:21.565Z,22.3
2018-02-18T04:59:21.347Z,22.3
2018-02-18T05:00:21.345Z,22.3
2018-02-18T05:01:21.153Z,22.2
2018-02-18T05:02:21.202Z,22.3
2018-02-18T05:03:21.162Z,22.2
2018-02-18T05:04:21.008Z,22.2
2018-02-18T05:05:21.115Z,22.2
2018-02-18T05:06:21.244Z,22.2
2018-02-18T05:07:20.702Z,22.2
2018-02-18T05:08:21.212Z,22.2
2018-02-18T05:09:20.620Z,22.2
2018-02-18T05:10:20.674Z,22.2
2018-02-18T05:11:20.565Z,22.2
2018-02-18T05:12:20.444Z,22.2
2018-02-18T05:13:20.639Z,22.2
2018-02-18T05:14:20.827Z,22.2
2018-02-18T05:15:20.195Z,22.2
2018-02-18T05:16:20.189Z,22.2
2018-02-18T05:17:20.082Z,22.2
2018-02-18T05:18:20.041Z,22.1
2018-02-18T05:19:19.968Z,22.2
2018-02-18T05:20:19.805Z,22.2
2018-02-18T05:21:20.075Z,22.1
2018-02-18T05:22:19.833Z,22.2
2018-02-18T05:23:19.713Z,22.2
2018-02-18T05:24:19.615Z,22.2
2018-02-18T05:25:19.922Z,22.2
2018-02-18T05:26:19.441Z,22.3
2018-02-18T05:27:19.530Z,22.3
2018-02-18T05:28:19.603Z,22.3
2018-02-18T05:29:19.179Z,22.3
2018-02-18T05:30:19.239Z,22.3
2018-02-18T05:31:19.133Z,22.3
2018-02-18T05:32:19.325Z,22.3
2018-02-18T05:33:18.974Z,22.3
2018-02-18T05:34:18.891Z,22.3
2018-02-18T05:35:18.868Z,22.3
2018-02-18T05:36:18.700Z,22.3
2018-02-18T05:37:18.794Z,22.3
2018-02-18T05:38:18.664Z,22.3
2018-02-18T05:39:18.724Z,22.3
2018-02-18T05:40:18.659Z,22.3
2018-02-18T05:41:18.437Z,22.3
2018-02-18T05:42:18.309Z,22.3
2018-02-18T05:43:18.656Z,22.3
2018-02-18T05:44:18.220Z,22.3
2018-02-18T05:45:18.127Z,22.3
2018-02-18T05:46:18.014Z,22.3
2018-02-18T05:47:18.349Z,22.3
2018-02-18T05:48:17.963Z,22.3
2018-02-18T05:49:18.204Z,22.3
2018-02-18T05:50:17.952Z,22.3
2018-02-18T05:51:17.964Z,22.2
2018-02-18T05:52:17.722Z,22.3
2018-02-18T05:53:18.271Z,22.2
2018-02-18T05:54:17.732Z,22.2
2018-02-18T05:55:17.811Z,22.2
2018-02-18T05:56:17.371Z,22.2
2018-02-18T05:57:17.370Z,22.2
2018-02-18T05:58:17.376Z,22.2
2018-02-18T05:59:17.164Z,22.3
2018-02-18T06:00:17.217Z,22.3
2018-02-18T06:01:17.263Z,22.3
2018-02-18T06:02:17.028Z,22.3
2018-02-18T06:03:16.921Z,22.3
2018-02-18T06:04:16.927Z,22.3
2018-02-18T06:05:16.876Z,22.3
2018-02-18T06:06:17.115Z,22.3
2018-02-18T06:07:16.813Z,22.3
2018-02-18T06:08:16.658Z,22.3
2018-02-18T06:09:16.696Z,22.3
2018-02-18T06:10:16.406Z,22.3
2018-02-18T06:11:16.449Z,22.3
2018-02-18T06:12:16.500Z,22.3
2018-02-18T06:13:16.276Z,22.3
2018-02-18T06:14:16.168Z,22.3
2018-02-18T06:15:16.282Z,22.3
2018-02-18T06:16:16.289Z,22.3
2018-02-18T06:17:15.920Z,22.3
2018-02-18T06:18:15.799Z,22.3
2018-02-18T06:19:16.084Z,22.3
2018-02-18T06:20:15.837Z,22.3
2018-02-18T06:21:15.891Z,22.3
2018-02-18T06:22:15.588Z,22.3
2018-02-18T06:23:15.599Z,22.3
2018-02-18T06:24:16.095Z,22.3
2018-02-18T06:25:15.387Z,22.3
2018-02-18T06:26:15.560Z,22.3
2018-02-18T06:27:15.243Z,22.2
2018-02-18T06:28:15.265Z,22.2
2018-02-18T06:29:15.420Z,22.2
2018-02-18T06:30:15.138Z,22.3
2018-02-18T06:31:15.004Z,22.3
2018-02-18T06:32:15.110Z,22.2
2018-02-18T06:33:14.820Z,22.3
2018-02-18T06:34:15.344Z,22.2
2018-02-18T06:35:14.865Z,22.2
2018-02-18T06:36:14.611Z,22.3
2018-02-18T06:37:14.568Z,22.2
2018-02-18T06:38:14.504Z,22.2
2018-02-18T06:39:14.533Z,22.2
2018-02-18T06:40:14.415Z,22.2
2018-02-18T06:41:14.332Z,22.2
2018-02-18T06:42:14.145Z,22.2
2018-02-18T06:43:14.230Z,22.2
2018-02-18T06:44:14.079Z,22.2
2018-02-18T06:45:13.987Z,22.2
2018-02-18T06:46:13.960Z,22.2
2018-02-18T06:47:13.820Z,22.2
2018-02-18T06:48:14.187Z,22.2
2018-02-18T06:49:13.823Z,22.2
2018-02-18T06:50:13.717Z,22.2
2018-02-18T06:51:13.703Z,22.2
2018-02-18T06:52:14.448Z,22.2
2018-02-18T06:53:13.694Z,22.2
2018-02-18T06:54:13.480Z,22.2
2018-02-18T06:55:13.253Z,22.2
2018-02-18T06:56:13.530Z,22.2
2018-02-18T06:57:13.210Z,22.2
2018-02-18T06:58:13.317Z,22.2
2018-02-18T06:59:13.127Z,22.2
2018-02-18T07:00:13.285Z,22.2
2018-02-18T07:01:12.951Z,22.2
2018-02-18T07:02:13.017Z,22.2
2018-02-18T07:03:12.848Z,22.2
2018-02-18T07:04:12.909Z,22.2
2018-02-18T07:05:12.675Z,22.3
2018-02-18T07:06:12.480Z,22.2
2018-02-18T07:07:12.584Z,22.3
2018-02-18T07:08:12.717Z,22.3
2018-02-18T07:09:12.326Z,22.3
2018-02-18T07:10:12.372Z,22.3
2018-02-18T07:11:12.251Z,22.3
2018-02-18T07:12:12.491Z,22.3
2018-02-18T07:13:12.124Z,22.3
2018-02-18T07:14:11.930Z,22.4
2018-02-18T07:15:11.911Z,22.4
2018-02-18T07:16:11.906Z,22.4
2018-02-18T07:17:11.810Z,22.4
2018-02-18T07:18:11.983Z,22.4
2018-02-18T07:19:11.750Z,22.4
2018-02-18T07:20:11.785Z,22.4
2018-02-18T07:21:11.520Z,22.4
2018-02-18T07:22:11.613Z,22.5
2018-02-18T07:23:11.307Z,22.6
2018-02-18T07:24:11.474Z,22.6
2018-02-18T07:25:11.344Z,22.6
2018-02-18T07:26:11.417Z,22.6
2018-02-18T07:27:11.103Z,22.6
2018-02-18T07:28:11.125Z,22.6
2018-02-18T07:29:11.179Z,22.6
2018-02-18T07:30:10.825Z,22.7
2018-02-18T07:31:11.097Z,22.7
2018-02-18T07:32:10.740Z,22.7
2018-02-18T07:33:10.945Z,22.7
2018-02-18T07:34:10.705Z,22.8
2018-02-18T07:35:10.523Z,22.8
2018-02-18T07:36:10.460Z,22.8
2018-02-18T07:37:10.822Z,22.8
2018-02-18T07:38:10.330Z,22.8
2018-02-18T07:39:10.380Z,22.8
2018-02-18T07:40:10.729Z,22.8
2018-02-18T07:41:10.377Z,22.8
2018-02-18T07:42:10.059Z,22.9
2018-02-18T07:43:10.282Z,22.9
2018-02-18T07:44:10.201Z,22.9
2018-02-18T07:45:10.186Z,22.9
2018-02-18T07:46:09.951Z,22.9
2018-02-18T07:47:09.713Z,22.9
2018-02-18T07:48:09.681Z,22.9
2018-02-18T07:49:09.676Z,22.9
2018-02-18T07:50:09.463Z,22.9
2018-02-18T07:51:10.044Z,23
2018-02-18T07:52:09.359Z,23
2018-02-18T07:53:09.342Z,23
2018-02-18T07:54:09.342Z,23.1
2018-02-18T07:55:09.284Z,23.1
2018-02-18T07:56:09.032Z,23.1
2018-02-18T07:57:09.760Z,23.1
2018-02-18T07:58:09.394Z,23.1
2018-02-18T07:59:08.893Z,23.1
2018-02-18T08:00:08.873Z,23.1
2018-02-18T08:01:08.741Z,23.1
2018-02-18T08:02:08.793Z,23.1
2018-02-18T08:03:08.903Z,23.1
2018-02-18T08:04:08.542Z,23.2
2018-02-18T08:05:08.445Z,23.1
2018-02-18T08:06:08.466Z,23.2
2018-02-18T08:07:08.299Z,23.2
2018-02-18T08:08:08.371Z,23.2
2018-02-18T08:09:08.191Z,23.2
2018-02-18T08:10:08.510Z,23.3
2018-02-18T08:11:08.450Z,23.2
2018-02-18T08:12:08.343Z,23.3
2018-02-18T08:13:08.061Z,23.3
2018-02-18T08:14:08.008Z,23.3
2018-02-18T08:15:08.100Z,23.3
2018-02-18T08:16:07.735Z,23.3
2018-02-18T08:17:07.696Z,23.3
2018-02-18T08:18:07.601Z,23.3
2018-02-18T08:19:07.646Z,23.3
2018-02-18T08:20:07.598Z,23.3
2018-02-18T08:21:07.353Z,23.3
2018-02-18T08:22:07.491Z,23.3
2018-02-18T08:23:07.194Z,23.4
2018-02-18T08:24:07.264Z,23.4
2018-02-18T08:25:07.026Z,23.4
2018-02-18T08:26:07.011Z,23.4
2018-02-18T08:27:06.954Z,23.4
2018-02-18T08:28:07.054Z,23.4
2018-02-18T08:29:06.863Z,23.4
2018-02-18T08:30:06.737Z,23.4
2018-02-18T08:31:06.787Z,23.4
2018-02-18T08:32:06.710Z,23.4
2018-02-18T08:33:07.064Z,23.4
2018-02-18T08:34:06.588Z,23.4
2018-02-18T08:35:06.438Z,23.4
2018-02-18T08:36:06.516Z,23.4
2018-02-18T08:37:06.270Z,23.4
2018-02-18T08:38:06.185Z,23.4
2018-02-18T08:39:06.180Z,23.3
2018-02-18T08:40:06.082Z,23.3
2018-02-18T08:41:06.169Z,23.3
2018-02-18T08:42:05.924Z,23.3
2018-02-18T08:43:05.901Z,23.3
2018-02-18T08:44:05.815Z,23.3
2018-02-18T08:45:05.858Z,23.3
2018-02-18T08:46:05.863Z,23.3
2018-02-18T08:47:05.809Z,23.3
2018-02-18T08:48:05.787Z,23.3
2018-02-18T08:49:05.612Z,23.3
2018-02-18T08:50:05.313Z,23.3
2018-02-18T08:51:05.593Z,23.3
2018-02-18T08:52:05.234Z,23.3
2018-02-18T08:53:05.271Z,23.3
2018-02-18T08:54:05.412Z,23.2
2018-02-18T08:55:04.992Z,23.3
2018-02-18T08:56:04.945Z,23.3
2018-02-18T08:57:04.993Z,23.3
2018-02-18T08:58:04.877Z,23.3
2018-02-18T08:59:04.776Z,23.3
2018-02-18T09:00:05.250Z,23.3
2018-02-18T09:01:04.656Z,23.2
2018-02-18T09:02:04.546Z,23.3
2018-02-18T09:03:04.470Z,23.2
2018-02-18T09:04:04.414Z,23.2
2018-02-18T09:05:04.607Z,23.2
2018-02-18T09:06:04.455Z,23.2
2018-02-18T09:07:04.187Z,23.2
2018-02-18T09:08:04.192Z,23.2
2018-02-18T09:09:04.076Z,23.2
2018-02-18T09:10:04.086Z,23.1
2018-02-18T09:11:04.005Z,23.1
2018-02-18T09:12:03.864Z,23.1
2018-02-18T09:13:03.879Z,23.1
2018-02-18T09:14:03.720Z,23.1
2018-02-18T09:15:03.848Z,23.1
2018-02-18T09:16:03.841Z,23.1
2018-02-18T09:17:03.534Z,23.1
2018-02-18T09:18:03.450Z,23.1
2018-02-18T09:19:03.620Z,23
2018-02-18T09:20:03.304Z,23
2018-02-18T09:21:03.240Z,23
2018-02-18T09:22:03.164Z,23
2018-02-18T09:23:03.035Z,23
2018-02-18T09:24:03.200Z,23
2018-02-18T09:25:03.253Z,22.9
2018-02-18T09:26:02.952Z,22.9
2018-02-18T09:27:02.858Z,22.9
2018-02-18T09:28:03.177Z,22.9
2018-02-18T09:29:02.743Z,22.9
2018-02-18T09:30:02.720Z,22.9
2018-02-18T09:31:02.832Z,22.9
2018-02-18T09:32:02.886Z,22.9
2018-02-18T09:33:02.771Z,22.9
2018-02-18T09:34:02.627Z,22.9
2018-02-18T09:35:02.317Z,22.9
2018-02-18T09:36:02.159Z,22.8
2018-02-18T09:37:02.136Z,22.8
2018-02-18T09:38:02.631Z,22.8
2018-02-18T09:39:02.229Z,22.8
2018-02-18T09:40:01.967Z,22.8
2018-02-18T09:41:02.260Z,22.8
2018-02-18T09:42:02.300Z,22.8
2018-02-18T09:43:01.943Z,22.8
2018-02-18T09:44:02.006Z,22.8
2018-02-18T09:45:01.526Z,22.8
2018-02-18T09:46:01.561Z,22.8
2018-02-18T09:47:01.656Z,22.8
2018-02-18T09:48:01.323Z,22.8
2018-02-18T09:49:02.029Z,22.8
2018-02-18T09:50:01.414Z,22.8
2018-02-18T09:51:01.425Z,22.8
2018-02-18T09:52:01.110Z,22.7
2018-02-18T09:53:01.255Z,22.8
2018-02-18T09:54:01.333Z,22.8
2018-02-18T09:55:01.004Z,22.8
2018-02-18T09:56:01.434Z,22.7
2018-02-18T09:57:00.755Z,22.8
2018-02-18T09:58:01.032Z,22.8
2018-02-18T09:59:00.817Z,22.8
2018-02-18T10:00:00.900Z,22.7
2018-02-18T10:01:00.696Z,22.8
2018-02-18T10:02:00.418Z,22.7
2018-02-18T10:03:00.451Z,22.7
2018-02-18T10:04:00.380Z,22.7
2018-02-18T10:05:00.225Z,22.7
2018-02-18T10:06:00.423Z,22.7
2018-02-18T10:07:00.263Z,22.7
2018-02-18T10:08:00.111Z,22.7
2018-02-18T10:09:00.123Z,22.7
2018-02-18T10:10:00.088Z,22.7
2018-02-18T10:10:59.857Z,22.7
2018-02-18T10:11:59.665Z,22.7
2018-02-18T10:12:59.649Z,22.7
2018-02-18T10:13:59.693Z,22.7
2018-02-18T10:14:59.640Z,22.7
2018-02-18T10:15:59.636Z,22.7
2018-02-18T10:16:59.424Z,22.7
2018-02-18T10:17:59.487Z,22.7
2018-02-18T10:18:59.191Z,22.7
2018-02-18T10:19:59.526Z,22.7
2018-02-18T10:20:59.419Z,22.7
2018-02-18T10:21:59.377Z,22.7
2018-02-18T10:22:59.067Z,22.8
2018-02-18T10:23:59.836Z,22.7
2018-02-18T10:24:58.989Z,22.8
2018-02-18T10:25:58.759Z,22.8
2018-02-18T10:26:59.105Z,22.8
2018-02-18T10:27:58.577Z,22.8
2018-02-18T10:28:58.929Z,22.8
2018-02-18T10:29:58.633Z,22.8
2018-02-18T10:30:58.745Z,22.8
2018-02-18T10:31:58.515Z,22.8
2018-02-18T10:32:59.020Z,22.8
2018-02-18T10:33:58.253Z,22.8
2018-02-18T10:34:58.315Z,22.9
2018-02-18T10:35:58.082Z,22.9
2018-02-18T10:36:58.086Z,22.9
2018-02-18T10:37:57.989Z,22.9
2018-02-18T10:38:57.838Z,22.9
2018-02-18T10:39:57.864Z,22.9
2018-02-18T10:40:57.779Z,22.9
2018-02-18T10:41:57.674Z,22.9
2018-02-18T10:42:57.652Z,22.9
2018-02-18T10:43:57.514Z,22.9
2018-02-18T10:44:57.450Z,22.9
2018-02-18T10:45:57.973Z,22.9
2018-02-18T10:46:57.364Z,22.9
2018-02-18T10:47:57.680Z,22.9
2018-02-18T10:48:57.127Z,22.9
2018-02-18T10:49:57.223Z,22.9
2018-02-18T10:50:57.151Z,22.9
2018-02-18T10:51:57.333Z,22.9
2018-02-18T10:52:56.970Z,22.9
2018-02-18T10:53:56.936Z,22.9
2018-02-18T10:54:56.859Z,22.9
2018-02-18T10:55:57.110Z,22.9
2018-02-18T10:56:56.628Z,22.9
2018-02-18T10:57:56.721Z,22.9
2018-02-18T10:58:56.442Z,22.9
2018-02-18T10:59:56.543Z,22.9
2018-02-18T11:00:56.334Z,22.9
2018-02-18T11:01:56.328Z,22.8
2018-02-18T11:02:56.666Z,22.8
2018-02-18T11:03:56.283Z,22.8
2018-02-18T11:04:56.806Z,22.7
2018-02-18T11:05:56.120Z,22.7
2018-02-18T11:06:55.951Z,22.6
2018-02-18T11:07:56.538Z,22.6
2018-02-18T11:08:56.186Z,22.6
2018-02-18T11:09:55.871Z,22.6
2018-02-18T11:10:55.644Z,22.7
2018-02-18T11:11:55.960Z,22.8
2018-02-18T11:12:55.709Z,22.8
2018-02-18T11:13:55.461Z,22.8
2018-02-18T11:14:55.399Z,22.8
2018-02-18T11:15:55.378Z,22.8
2018-02-18T11:16:55.528Z,22.8
2018-02-18T11:17:55.342Z,22.8
2018-02-18T11:18:55.120Z,22.8
2018-02-18T11:19:55.141Z,22.9
2018-02-18T11:20:55.223Z,22.8
2018-02-18T11:21:55.174Z,22.9
2018-02-18T11:22:55.209Z,22.9
2018-02-18T11:23:55.182Z,22.9
2018-02-18T11:24:54.927Z,22.9
2018-02-18T11:25:54.657Z,22.9
2018-02-18T11:26:54.855Z,22.9
2018-02-18T11:27:55.032Z,22.9
2018-02-18T11:28:54.516Z,22.9
2018-02-18T11:29:54.473Z,22.9
2018-02-18T11:30:54.419Z,22.9
2018-02-18T11:31:54.294Z,22.9
2018-02-18T11:32:54.203Z,22.9
2018-02-18T11:33:54.326Z,22.9
2018-02-18T11:34:54.334Z,22.9
2018-02-18T11:35:53.964Z,22.9
2018-02-18T11:36:53.973Z,22.9
2018-02-18T11:37:54.486Z,22.9
2018-02-18T11:38:53.763Z,22.9
2018-02-18T11:39:53.687Z,22.9
2018-02-18T11:40:53.760Z,22.9
2018-02-18T11:41:53.565Z,22.9
2018-02-18T11:42:54.110Z,22.9
2018-02-18T11:43:53.759Z,22.9
2018-02-18T11:44:53.654Z,22.9
2018-02-18T11:45:53.591Z,22.9
2018-02-18T11:46:53.396Z,22.9
2018-02-18T11:47:53.470Z,22.9
2018-02-18T11:48:53.294Z,22.9
2018-02-18T11:49:53.146Z,22.9
2018-02-18T11:50:52.949Z,22.9
2018-02-18T11:51:53.001Z,22.9
2018-02-18T11:52:52.763Z,22.9
2018-02-18T11:53:52.846Z,22.9
2018-02-18T11:54:52.740Z,22.9
2018-02-18T11:55:52.620Z,22.9
2018-02-18T11:56:52.643Z,22.9
2018-02-18T11:57:52.592Z,22.9
2018-02-18T11:58:52.841Z,22.9
2018-02-18T11:59:52.691Z,22.9
2018-02-18T12:00:52.669Z,22.9
2018-02-18T12:01:52.490Z,22.9
2018-02-18T12:02:52.076Z,22.9
2018-02-18T12:03:52.294Z,22.9
2018-02-18T12:04:51.975Z,22.9
2018-02-18T12:05:52.250Z,22.9
2018-02-18T12:06:51.869Z,22.9
2018-02-18T12:07:51.899Z,22.9
2018-02-18T12:08:51.732Z,22.9
2018-02-18T12:09:51.656Z,22.9
2018-02-18T12:10:51.948Z,22.9
2018-02-18T12:11:51.479Z,22.9
2018-02-18T12:12:51.617Z,22.9
2018-02-18T12:13:51.487Z,22.9
2018-02-18T12:14:51.321Z,22.9
2018-02-18T12:15:51.433Z,22.9
2018-02-18T12:16:51.181Z,22.9
2018-02-18T12:17:51.403Z,22.9
2018-02-18T12:18:51.259Z,22.9
2018-02-18T12:19:51.421Z,22.9
2018-02-18T12:20:51.268Z,22.9
2018-02-18T12:21:51.015Z,22.9
2018-02-18T12:22:50.942Z,22.9
2018-02-18T12:23:51.101Z,22.9
2018-02-18T12:24:50.744Z,22.9
2018-02-18T12:25:50.898Z,22.9
2018-02-18T12:26:50.603Z,22.9
2018-02-18T12:27:50.613Z,22.9
2018-02-18T12:28:50.331Z,22.9
2018-02-18T12:29:50.454Z,22.9
2018-02-18T12:30:50.862Z,22.9
2018-02-18T12:31:50.379Z,22.9
2018-02-18T12:32:50.263Z,22.9
2018-02-18T12:33:50.056Z,22.9
2018-02-18T12:34:49.992Z,22.9
2018-02-18T12:35:49.878Z,22.9
2018-02-18T12:36:49.889Z,22.9
2018-02-18T12:37:49.834Z,22.9
2018-02-18T12:38:49.974Z,22.9
2018-02-18T12:39:49.824Z,22.9
2018-02-18T12:40:49.544Z,22.9
2018-02-18T12:41:49.410Z,22.9
2018-02-18T12:42:49.464Z,22.8
2018-02-18T12:43:49.379Z,22.9
2018-02-18T12:44:49.251Z,22.9
2018-02-18T12:45:49.197Z,22.9
2018-02-18T12:46:49.109Z,22.9
2018-02-18T12:47:49.461Z,22.8
2018-02-18T12:48:49.106Z,22.8
2018-02-18T12:49:48.911Z,22.8
2018-02-18T12:50:48.857Z,22.8
2018-02-18T12:51:49.002Z,22.8
2018-02-18T12:52:49.276Z,22.8
2018-02-18T12:53:48.645Z,22.9
2018-02-18T12:54:48.931Z,22.8
2018-02-18T12:55:48.540Z,22.8
2018-02-18T12:56:48.486Z,22.8
2018-02-18T12:57:48.553Z,22.8
2018-02-18T12:58:48.814Z,22.8
2018-02-18T12:59:48.224Z,22.8
2018-02-18T13:00:48.269Z,22.8
2018-02-18T13:01:48.108Z,22.8
2018-02-18T13:02:48.082Z,22.8
2018-02-18T13:03:47.905Z,22.8
2018-02-18T13:04:48.253Z,22.8
2018-02-18T13:05:47.909Z,22.8
2018-02-18T13:06:47.745Z,22.8
2018-02-18T13:07:47.744Z,22.8
2018-02-18T13:08:47.716Z,22.8
2018-02-18T13:09:47.587Z,22.8
2018-02-18T13:10:47.503Z,22.8
2018-02-18T13:11:47.518Z,22.8
2018-02-18T13:12:47.560Z,22.8
2018-02-18T13:13:47.565Z,22.8
2018-02-18T13:14:47.152Z,22.8
2018-02-18T13:15:47.488Z,22.8
2018-02-18T13:16:47.026Z,22.8
2018-02-18T13:17:47.304Z,22.8
2018-02-18T13:18:47.040Z,22.8
2018-02-18T13:19:47.070Z,22.8